createdAt,value
2019-04-25T00:00:52.375Z,98471.21
2019-04-25T00:03:25.363Z,98463.09
2019-04-25T00:05:56.711Z,98465.95
2019-04-25T00:08:27.557Z,98461.45
2019-04-25T00:10:58.398Z,98469.36
2019-04-25T00:13:29.627Z,98463.24
2019-04-25T00:16:01.869Z,98463.47
2019-04-25T00:18:32.785Z,98455.41
2019-04-25T00:21:12.186Z,98453.00
2019-04-25T00:23:45.007Z,98453.22
2019-04-25T00:26:23.615Z,98454.45
2019-04-25T00:28:54.669Z,98453.11
2019-04-25T00:31:26.075Z,98461.50
2019-04-25T00:33:58.480Z,98466.80
2019-04-25T00:36:29.668Z,98466.12
2019-04-25T00:39:01.961Z,98460.98
2019-04-25T00:41:34.541Z,98464.86
2019-04-25T00:44:05.694Z,98465.59
2019-04-25T00:46:36.512Z,98467.52
2019-04-25T00:49:07.598Z,98458.89
2019-04-25T00:51:38.637Z,98465.14
2019-04-25T00:54:09.421Z,98455.02
2019-04-25T00:56:43.276Z,98460.47
2019-04-25T00:59:18.702Z,98455.33
2019-04-25T01:02:07.617Z,98456.81
2019-04-25T01:04:38.361Z,98458.30
2019-04-25T01:07:09.633Z,98451.31
2019-04-25T01:09:42.195Z,98458.92
2019-04-25T01:12:14.997Z,98458.41
2019-04-25T01:14:46.518Z,98477.28
2019-04-25T01:17:17.600Z,98466.66
2019-04-25T01:19:48.929Z,98470.34
2019-04-25T01:22:19.908Z,98481.45
2019-04-25T01:24:51.456Z,98486.36
2019-04-25T01:27:23.448Z,98490.09
2019-04-25T01:29:55.289Z,98487.05
2019-04-25T01:32:34.392Z,98492.33
2019-04-25T01:35:24.332Z,98506.95
2019-04-25T01:38:34.548Z,98511.94
2019-04-25T01:41:24.367Z,98516.70
2019-04-25T01:44:01.680Z,98508.14
2019-04-25T01:46:34.138Z,98495.70
2019-04-25T01:49:05.247Z,98505.84
2019-04-25T01:51:36.122Z,98490.47
2019-04-25T01:54:07.104Z,98473.50
2019-04-25T01:56:38.134Z,98490.42
2019-04-25T01:59:09.368Z,98504.21
2019-04-25T02:01:41.056Z,98508.51
2019-04-25T02:04:13.241Z,98503.79
2019-04-25T02:06:44.235Z,98502.08
2019-04-25T02:09:15.777Z,98505.28
2019-04-25T02:12:13.501Z,98501.38
2019-04-25T02:14:45.219Z,98502.33
2019-04-25T02:17:16.649Z,98501.63
2019-04-25T02:19:47.651Z,98504.19
2019-04-25T02:22:18.716Z,98502.85
2019-04-25T02:24:49.600Z,98504.89
2019-04-25T02:27:20.557Z,98498.70
2019-04-25T02:29:52.833Z,98499.18
2019-04-25T02:32:25.139Z,98493.91
2019-04-25T02:34:59.614Z,98495.31
2019-04-25T02:37:30.006Z,98500.62
2019-04-25T02:40:02.429Z,98500.11
2019-04-25T02:42:34.367Z,98510.60
2019-04-25T02:45:26.683Z,98511.97
2019-04-25T02:48:24.409Z,98520.84
2019-04-25T02:51:10.125Z,98527.54
2019-04-25T02:53:44.872Z,98534.02
2019-04-25T02:56:30.289Z,98536.92
2019-04-25T02:58:48.882Z,98521.25
2019-04-25T03:01:23.519Z,98523.42
2019-04-25T03:03:54.534Z,98522.72
2019-04-25T03:06:25.223Z,98525.78
2019-04-25T03:08:57.786Z,98531.17
2019-04-25T03:11:28.930Z,98533.83
2019-04-25T03:14:00.548Z,98504.35
2019-04-25T03:16:34.750Z,98487.22
2019-04-25T03:19:26.332Z,98482.47
2019-04-25T03:21:59.792Z,98504.00
2019-04-25T03:24:31.456Z,98513.98
2019-04-25T03:27:03.427Z,98530.79
2019-04-25T03:29:35.072Z,98552.30
2019-04-25T03:32:09.941Z,98548.84
2019-04-25T03:34:38.708Z,98529.98
2019-04-25T03:37:09.722Z,98514.19
2019-04-25T03:39:40.724Z,98532.48
2019-04-25T03:42:13.965Z,98549.02
2019-04-25T03:44:44.954Z,98555.94
2019-04-25T03:47:15.686Z,98559.01
2019-04-25T03:49:46.612Z,98554.38
2019-04-25T03:52:17.505Z,98540.83
2019-04-25T03:54:48.396Z,98541.33
2019-04-25T03:57:19.165Z,98539.20
2019-04-25T03:59:50.321Z,98544.01
2019-04-25T04:02:21.268Z,98539.09
2019-04-25T04:04:53.742Z,98547.89
2019-04-25T04:07:24.917Z,98547.67
2019-04-25T04:09:56.135Z,98544.39
2019-04-25T04:12:27.041Z,98537.19
2019-04-25T04:14:57.896Z,98540.35
2019-04-25T04:17:46.257Z,98531.89
2019-04-25T04:20:39.491Z,98529.78
2019-04-25T04:23:18.549Z,98528.94
2019-04-25T04:25:49.559Z,98526.53
2019-04-25T04:28:20.447Z,98517.45
2019-04-25T04:30:51.635Z,98511.14
2019-04-25T04:33:30.169Z,98508.48
2019-04-25T04:35:55.188Z,98512.88
2019-04-25T04:38:26.141Z,98507.91
2019-04-25T04:40:57.084Z,98510.44
2019-04-25T04:43:28.051Z,98513.81
2019-04-25T04:45:58.881Z,98513.31
2019-04-25T04:48:29.829Z,98498.26
2019-04-25T04:51:00.768Z,98503.19
2019-04-25T04:53:31.530Z,98499.45
2019-04-25T04:56:04.168Z,98497.36
2019-04-25T04:58:35.153Z,98485.42
2019-04-25T05:01:06.259Z,98493.91
2019-04-25T05:03:44.098Z,98498.92
2019-04-25T05:06:30.633Z,98501.60
2019-04-25T05:09:12.551Z,98507.06
2019-04-25T05:11:44.348Z,98503.52
2019-04-25T05:14:16.154Z,98501.67
2019-04-25T05:16:49.476Z,98503.88
2019-04-25T05:19:20.561Z,98507.57
2019-04-25T05:21:51.485Z,98509.67
2019-04-25T05:24:24.922Z,98518.34
2019-04-25T05:26:54.899Z,98521.73
2019-04-25T05:29:26.697Z,98531.36
2019-04-25T05:31:57.698Z,98534.57
2019-04-25T05:34:28.672Z,98539.99
2019-04-25T05:36:59.613Z,98533.38
2019-04-25T05:39:30.427Z,98525.48
2019-04-25T05:42:26.068Z,98520.13
2019-04-25T05:44:59.528Z,98517.38
2019-04-25T05:47:30.547Z,98515.81
2019-04-25T05:50:01.310Z,98522.80
2019-04-25T05:52:33.459Z,98524.75
2019-04-25T05:55:04.612Z,98528.26
2019-04-25T05:57:45.545Z,98518.36
2019-04-25T06:00:09.317Z,98516.89
2019-04-25T06:02:40.253Z,98512.09
2019-04-25T06:05:11.337Z,98508.56
2019-04-25T06:07:43.228Z,98511.10
2019-04-25T06:10:25.678Z,98516.55
2019-04-25T06:13:28.784Z,98519.09
2019-04-25T06:16:04.352Z,98516.89
2019-04-25T06:18:54.937Z,98537.75
2019-04-25T06:21:25.904Z,98537.45
2019-04-25T06:24:19.163Z,98526.89
2019-04-25T06:27:00.488Z,98539.20
2019-04-25T06:29:31.438Z,98529.99
2019-04-25T06:32:06.589Z,98535.45
2019-04-25T06:34:36.476Z,98523.19
2019-04-25T06:37:07.413Z,98522.38
2019-04-25T06:39:38.300Z,98523.56
2019-04-25T06:42:09.284Z,98528.14
2019-04-25T06:44:53.472Z,98519.73
2019-04-25T06:47:44.293Z,98512.22
2019-04-25T06:50:15.850Z,98516.98
2019-04-25T06:52:46.732Z,98512.33
2019-04-25T06:55:17.670Z,98512.02
2019-04-25T06:57:48.555Z,98514.33
2019-04-25T07:00:20.319Z,98517.43
2019-04-25T07:02:51.149Z,98518.34
2019-04-25T07:05:28.986Z,98522.52
2019-04-25T07:07:56.434Z,98528.48
2019-04-25T07:10:27.504Z,98520.57
2019-04-25T07:12:58.296Z,98523.18
2019-04-25T07:15:29.586Z,98510.50
2019-04-25T07:18:00.445Z,98510.56
2019-04-25T07:20:32.266Z,98504.14
2019-04-25T07:23:04.317Z,98498.48
2019-04-25T07:25:38.107Z,98487.64
2019-04-25T07:28:31.576Z,98507.23
2019-04-25T07:31:21.195Z,98510.13
2019-04-25T07:34:14.308Z,98492.09
2019-04-25T07:36:45.725Z,98486.61
2019-04-25T07:39:16.810Z,98484.49
2019-04-25T07:41:48.414Z,98484.91
2019-04-25T07:44:24.584Z,98480.75
2019-04-25T07:46:51.948Z,98487.61
2019-04-25T07:49:23.460Z,98482.25
2019-04-25T07:51:54.500Z,98480.38
2019-04-25T07:54:26.450Z,98485.39
2019-04-25T07:56:58.071Z,98482.41
2019-04-25T07:59:29.114Z,98479.88
2019-04-25T08:01:59.969Z,98479.48
2019-04-25T08:04:31.777Z,98473.42
2019-04-25T08:07:04.118Z,98471.88
2019-04-25T08:09:35.780Z,98466.51
2019-04-25T08:12:08.146Z,98477.09
2019-04-25T08:14:54.250Z,98474.58
2019-04-25T08:17:44.141Z,98453.52
2019-04-25T08:20:15.633Z,98456.78
2019-04-25T08:22:55.463Z,98447.16
2019-04-25T08:25:20.477Z,98432.11
2019-04-25T08:27:51.567Z,98422.81
2019-04-25T08:30:24.006Z,98426.66
2019-04-25T08:32:54.997Z,98431.02
2019-04-25T08:35:27.106Z,98420.84
2019-04-25T08:37:58.128Z,98421.38
2019-04-25T08:40:32.378Z,98427.39
2019-04-25T08:43:03.536Z,98419.22
2019-04-25T08:45:35.688Z,98412.62
2019-04-25T08:48:07.346Z,98399.67
2019-04-25T08:50:48.226Z,98405.58
2019-04-25T08:53:19.156Z,98403.78
2019-04-25T08:56:01.321Z,98400.02
2019-04-25T08:59:01.449Z,98398.09
2019-04-25T09:01:50.335Z,98391.63
2019-04-25T09:04:29.976Z,98386.73
2019-04-25T09:07:00.947Z,98388.91
2019-04-25T09:09:32.478Z,98391.65
2019-04-25T09:12:04.380Z,98395.98
2019-04-25T09:14:36.815Z,98393.30
2019-04-25T09:17:08.498Z,98394.38
2019-04-25T09:19:39.963Z,98377.56
2019-04-25T09:22:13.265Z,98389.55
2019-04-25T09:24:45.377Z,98392.25
2019-04-25T09:27:16.321Z,98393.87
2019-04-25T09:29:47.528Z,98397.38
2019-04-25T09:32:18.287Z,98391.12
2019-04-25T09:34:50.114Z,98394.11
2019-04-25T09:37:20.996Z,98388.35
2019-04-25T09:40:16.605Z,98392.85
2019-04-25T09:42:47.949Z,98377.05
2019-04-25T09:45:46.069Z,98361.72
2019-04-25T09:48:38.671Z,98357.31
2019-04-25T09:51:35.909Z,98358.26
2019-04-25T09:54:24.487Z,98339.67
2019-04-25T09:56:59.072Z,98348.28
2019-04-25T09:59:30.202Z,98357.31
2019-04-25T10:02:01.096Z,98360.08
2019-04-25T10:04:34.479Z,98348.50
2019-04-25T10:07:04.969Z,98328.91
2019-04-25T10:09:35.878Z,98339.85
2019-04-25T10:12:06.878Z,98333.09
2019-04-25T10:15:04.496Z,98318.91
2019-04-25T10:17:35.505Z,98315.55
2019-04-25T10:20:07.657Z,98311.20
2019-04-25T10:22:38.852Z,98316.73
2019-04-25T10:25:09.972Z,98320.84
2019-04-25T10:27:41.044Z,98305.31
2019-04-25T10:30:17.850Z,98297.45
2019-04-25T10:32:46.233Z,98313.50
2019-04-25T10:35:17.300Z,98311.11
2019-04-25T10:37:48.689Z,98294.95
2019-04-25T10:40:20.680Z,98292.34
2019-04-25T10:42:53.027Z,98301.29
2019-04-25T10:45:26.080Z,98312.50
2019-04-25T10:47:57.230Z,98304.13
2019-04-25T10:50:28.170Z,98289.30
2019-04-25T10:52:58.887Z,98281.83
2019-04-25T10:55:29.882Z,98291.80
2019-04-25T10:58:00.758Z,98293.59
2019-04-25T11:00:40.783Z,98293.72
2019-04-25T11:03:37.545Z,98280.52
2019-04-25T11:06:08.690Z,98275.91
2019-04-25T11:08:40.409Z,98283.82
2019-04-25T11:11:13.807Z,98283.11
2019-04-25T11:13:45.255Z,98287.63
2019-04-25T11:16:16.622Z,98291.64
2019-04-25T11:18:47.632Z,98287.21
2019-04-25T11:21:18.670Z,98288.81
2019-04-25T11:23:50.119Z,98291.00
2019-04-25T11:26:21.080Z,98289.45
2019-04-25T11:28:51.941Z,98281.52
2019-04-25T11:31:36.750Z,98276.18
2019-04-25T11:34:07.462Z,98278.31
2019-04-25T11:36:38.326Z,98274.26
2019-04-25T11:39:34.720Z,98272.34
2019-04-25T11:42:09.921Z,98287.11
2019-04-25T11:44:40.812Z,98270.66
2019-04-25T11:47:11.866Z,98263.27
2019-04-25T11:49:44.790Z,98261.38
2019-04-25T11:52:26.889Z,98263.46
2019-04-25T11:54:49.986Z,98257.05
2019-04-25T11:57:20.925Z,98253.28
2019-04-25T11:59:52.390Z,98246.54
2019-04-25T12:02:23.998Z,98255.66
2019-04-25T12:04:55.321Z,98267.36
2019-04-25T12:07:26.220Z,98258.14
2019-04-25T12:09:57.094Z,98262.52
2019-04-25T12:12:28.146Z,98264.03
2019-04-25T12:14:59.053Z,98258.07
2019-04-25T12:17:29.855Z,98249.75
2019-04-25T12:20:00.644Z,98254.58
2019-04-25T12:22:31.424Z,98256.64
2019-04-25T12:25:02.318Z,98245.25
2019-04-25T12:27:33.751Z,98250.07
2019-04-25T12:30:05.421Z,98244.98
2019-04-25T12:32:37.061Z,98248.34
2019-04-25T12:35:08.077Z,98250.92
2019-04-25T12:37:39.057Z,98249.91
2019-04-25T12:40:10.613Z,98246.05
2019-04-25T12:42:41.469Z,98242.44
2019-04-25T12:45:29.844Z,98246.73
2019-04-25T12:48:00.719Z,98247.06
2019-04-25T12:50:31.550Z,98232.44
2019-04-25T12:53:03.688Z,98238.40
2019-04-25T12:55:35.783Z,98241.55
2019-04-25T12:58:06.574Z,98239.92
2019-04-25T13:00:47.461Z,98243.27
2019-04-25T13:03:10.111Z,98234.63
2019-04-25T13:05:41.070Z,98238.19
2019-04-25T13:08:14.290Z,98230.67
2019-04-25T13:10:45.306Z,98232.85
2019-04-25T13:13:16.614Z,98229.08
2019-04-25T13:15:48.382Z,98221.77
2019-04-25T13:18:19.307Z,98212.45
2019-04-25T13:20:50.328Z,98218.37
2019-04-25T13:23:21.276Z,98205.13
2019-04-25T13:25:54.085Z,98193.58
2019-04-25T13:28:49.762Z,98200.11
2019-04-25T13:31:39.477Z,98202.17
2019-04-25T13:34:34.142Z,98183.52
2019-04-25T13:36:54.312Z,98186.58
2019-04-25T13:39:25.682Z,98168.89
2019-04-25T13:41:58.784Z,98161.27
2019-04-25T13:44:29.440Z,98168.72
2019-04-25T13:47:00.304Z,98182.55
2019-04-25T13:49:31.640Z,98180.90
2019-04-25T13:52:02.678Z,98189.45
2019-04-25T13:54:34.980Z,98184.14
2019-04-25T13:57:06.109Z,98177.54
2019-04-25T13:59:36.905Z,98179.09
2019-04-25T14:02:08.339Z,98177.39
2019-04-25T14:04:39.213Z,98185.08
2019-04-25T14:07:10.177Z,98178.81
2019-04-25T14:09:41.171Z,98177.90
2019-04-25T14:12:13.977Z,98179.64
2019-04-25T14:14:45.301Z,98181.32
2019-04-25T14:17:54.106Z,98190.86
2019-04-25T14:20:32.655Z,98187.53
2019-04-25T14:23:03.722Z,98197.41
2019-04-25T14:25:35.267Z,98201.25
2019-04-25T14:28:06.351Z,98203.56
2019-04-25T14:30:37.206Z,98191.84
2019-04-25T14:33:08.288Z,98195.30
2019-04-25T14:35:39.151Z,98187.33
2019-04-25T14:38:10.227Z,98197.91
2019-04-25T14:40:42.325Z,98204.11
2019-04-25T14:43:13.243Z,98202.81
2019-04-25T14:45:45.162Z,98194.42
2019-04-25T14:48:17.338Z,98190.47
2019-04-25T14:50:48.240Z,98215.31
2019-04-25T14:53:19.038Z,98200.93
2019-04-25T14:56:00.939Z,98201.98
2019-04-25T14:58:34.098Z,98201.48
2019-04-25T15:01:05.993Z,98197.39
2019-04-25T15:03:36.835Z,98191.45
2019-04-25T15:06:07.977Z,98196.22
2019-04-25T15:08:39.056Z,98199.91
2019-04-25T15:11:10.039Z,98204.88
2019-04-25T15:13:41.131Z,98200.89
2019-04-25T15:16:11.926Z,98215.92
2019-04-25T15:18:46.871Z,98221.01
2019-04-25T15:21:15.550Z,98223.78
2019-04-25T15:23:46.506Z,98228.96
2019-04-25T15:26:17.557Z,98229.80
2019-04-25T15:28:48.383Z,98226.37
2019-04-25T15:31:19.090Z,98225.63
2019-04-25T15:33:50.046Z,98224.81
2019-04-25T15:36:26.489Z,98223.44
2019-04-25T15:39:15.060Z,98230.48
2019-04-25T15:42:06.374Z,98231.48
2019-04-25T15:45:01.359Z,98232.05
2019-04-25T15:47:33.975Z,98241.25
2019-04-25T15:50:07.014Z,98252.81
2019-04-25T15:52:37.895Z,98256.34
2019-04-25T15:55:08.910Z,98259.02
2019-04-25T15:57:40.768Z,98263.15
2019-04-25T16:00:18.542Z,98269.14
2019-04-25T16:02:49.580Z,98277.30
2019-04-25T16:05:20.361Z,98274.91
2019-04-25T16:07:51.328Z,98263.11
2019-04-25T16:10:22.399Z,98255.09
2019-04-25T16:12:53.322Z,98265.83
2019-04-25T16:15:24.297Z,98280.02
2019-04-25T16:17:55.293Z,98292.84
2019-04-25T16:20:27.288Z,98300.63
2019-04-25T16:22:58.711Z,98305.72
2019-04-25T16:25:29.971Z,98311.77
2019-04-25T16:28:00.933Z,98309.17
2019-04-25T16:30:33.210Z,98316.02
2019-04-25T16:33:04.329Z,98324.41
2019-04-25T16:35:35.478Z,98334.20
2019-04-25T16:38:07.374Z,98345.43
2019-04-25T16:40:38.810Z,98340.17
2019-04-25T16:43:12.205Z,98332.91
2019-04-25T16:45:43.145Z,98332.31
2019-04-25T16:48:14.055Z,98339.09
2019-04-25T16:50:44.930Z,98344.74
2019-04-25T16:53:15.876Z,98357.08
2019-04-25T16:55:47.022Z,98358.12
2019-04-25T16:58:18.465Z,98363.54
2019-04-25T17:01:04.712Z,98359.63
2019-04-25T17:03:37.638Z,98356.81
2019-04-25T17:06:08.836Z,98365.97
2019-04-25T17:08:40.252Z,98379.28
2019-04-25T17:11:11.388Z,98398.43
2019-04-25T17:13:48.346Z,98411.45
2019-04-25T17:16:43.368Z,98411.19
2019-04-25T17:19:20.922Z,98412.44
2019-04-25T17:21:51.731Z,98415.86
2019-04-25T17:24:22.572Z,98410.50
2019-04-25T17:26:53.403Z,98410.73
2019-04-25T17:29:24.419Z,98415.17
2019-04-25T17:32:05.387Z,98421.55
2019-04-25T17:34:48.516Z,98424.34
2019-04-25T17:37:32.349Z,98432.97
2019-04-25T17:40:10.461Z,98455.23
2019-04-25T17:42:41.302Z,98456.84
2019-04-25T17:45:15.702Z,98463.89
2019-04-25T17:47:54.395Z,98465.33
2019-04-25T17:50:19.234Z,98483.64
2019-04-25T17:52:50.212Z,98484.23
2019-04-25T17:55:21.106Z,98488.39
2019-04-25T17:57:52.060Z,98500.33
2019-04-25T18:00:28.556Z,98507.91
2019-04-25T18:02:59.567Z,98512.58
2019-04-25T18:05:30.508Z,98514.34
2019-04-25T18:08:01.363Z,98521.05
2019-04-25T18:10:34.140Z,98528.79
2019-04-25T18:13:09.298Z,98524.42
2019-04-25T18:15:58.142Z,98528.16
2019-04-25T18:18:43.441Z,98529.59
2019-04-25T18:21:14.312Z,98538.88
2019-04-25T18:24:04.303Z,98541.91
2019-04-25T18:26:54.086Z,98553.96
2019-04-25T18:29:25.310Z,98566.51
2019-04-25T18:31:56.162Z,98571.95
2019-04-25T18:34:35.973Z,98575.26
2019-04-25T18:37:23.867Z,98579.36
2019-04-25T18:40:06.331Z,98592.67
2019-04-25T18:42:53.396Z,98582.09
2019-04-25T18:45:27.510Z,98581.56
2019-04-25T18:47:58.383Z,98577.45
2019-04-25T18:50:30.911Z,98586.70
2019-04-25T18:53:18.736Z,98581.80
2019-04-25T18:55:55.994Z,98584.80
2019-04-25T18:58:46.131Z,98587.25
2019-04-25T19:01:25.782Z,98588.34
2019-04-25T19:04:08.138Z,98599.98
2019-04-25T19:06:51.089Z,98597.53
2019-04-25T19:09:12.694Z,98606.48
2019-04-25T19:11:45.099Z,98602.41
2019-04-25T19:14:16.011Z,98612.72
2019-04-25T19:16:47.644Z,98618.38
2019-04-25T19:19:18.513Z,98619.20
2019-04-25T19:21:49.477Z,98621.19
2019-04-25T19:24:20.342Z,98632.94
2019-04-25T19:26:52.220Z,98645.90
2019-04-25T19:29:23.081Z,98655.67
2019-04-25T19:31:54.025Z,98651.23
2019-04-25T19:34:24.858Z,98653.36
2019-04-25T19:36:55.763Z,98650.60
2019-04-25T19:39:28.265Z,98662.78
2019-04-25T19:42:18.725Z,98672.13
2019-04-25T19:44:49.610Z,98668.09
2019-04-25T19:47:25.865Z,98683.20
2019-04-25T19:49:56.983Z,98699.89
2019-04-25T19:52:29.666Z,98705.54
2019-04-25T19:55:01.199Z,98708.48
2019-04-25T19:57:32.349Z,98722.66
2019-04-25T20:00:04.258Z,98733.54
2019-04-25T20:02:57.199Z,98734.81
2019-04-25T20:05:37.762Z,98749.49
2019-04-25T20:08:26.634Z,98750.23
2019-04-25T20:11:00.982Z,98749.98
2019-04-25T20:13:31.786Z,98754.78
2019-04-25T20:16:02.776Z,98748.92
2019-04-25T20:18:33.461Z,98751.59
2019-04-25T20:21:04.437Z,98752.38
2019-04-25T20:23:35.211Z,98740.50
2019-04-25T20:26:06.224Z,98738.33
2019-04-25T20:28:37.109Z,98732.38
2019-04-25T20:31:07.883Z,98724.69
2019-04-25T20:33:38.777Z,98725.09
2019-04-25T20:36:17.677Z,98717.59
2019-04-25T20:38:42.349Z,98732.08
2019-04-25T20:41:13.105Z,98737.50
2019-04-25T20:43:44.134Z,98733.44
2019-04-25T20:46:14.991Z,98731.52
2019-04-25T20:48:46.767Z,98720.63
2019-04-25T20:51:17.583Z,98720.52
2019-04-25T20:53:48.874Z,98716.20
2019-04-25T20:56:19.993Z,98714.94
2019-04-25T20:58:51.184Z,98713.53
2019-04-25T21:01:22.052Z,98713.44
2019-04-25T21:03:52.937Z,98712.65
2019-04-25T21:06:29.728Z,98706.20
2019-04-25T21:09:00.513Z,98701.34
2019-04-25T21:11:33.061Z,98700.17
2019-04-25T21:14:21.365Z,98697.73
2019-04-25T21:17:02.833Z,98703.61
2019-04-25T21:19:36.285Z,98707.41
2019-04-25T21:22:07.167Z,98723.70
2019-04-25T21:24:38.035Z,98729.46
2019-04-25T21:27:08.923Z,98733.48
2019-04-25T21:29:39.238Z,98753.00
2019-04-25T21:32:10.182Z,98771.84
2019-04-25T21:34:41.166Z,98780.17
2019-04-25T21:37:12.432Z,98769.56
2019-04-25T21:39:58.226Z,98765.03
2019-04-25T21:42:33.404Z,98758.57
2019-04-25T21:45:05.014Z,98756.66
2019-04-25T21:47:36.052Z,98756.96
2019-04-25T21:50:07.677Z,98752.53
2019-04-25T21:52:38.743Z,98757.17
2019-04-25T21:55:10.052Z,98756.28
2019-04-25T21:57:41.245Z,98755.38
2019-04-25T22:00:15.401Z,98752.73
2019-04-25T22:02:48.226Z,98739.62
2019-04-25T22:05:19.321Z,98740.97
2019-04-25T22:07:50.462Z,98737.02
2019-04-25T22:10:21.449Z,98724.07
2019-04-25T22:12:52.461Z,98728.54
2019-04-25T22:15:23.340Z,98743.44
2019-04-25T22:17:54.501Z,98762.15
2019-04-25T22:20:25.313Z,98763.19
2019-04-25T22:22:57.008Z,98767.66
2019-04-25T22:25:28.202Z,98762.88
2019-04-25T22:27:59.354Z,98749.56
2019-04-25T22:30:30.361Z,98754.91
2019-04-25T22:33:11.011Z,98773.96
2019-04-25T22:35:46.374Z,98775.14
2019-04-25T22:38:17.638Z,98765.87
2019-04-25T22:40:48.506Z,98754.86
2019-04-25T22:43:20.121Z,98755.08
2019-04-25T22:45:51.241Z,98768.13
2019-04-25T22:48:46.417Z,98776.61
2019-04-25T22:51:17.595Z,98776.94
2019-04-25T22:53:48.722Z,98785.62
2019-04-25T22:56:19.581Z,98791.60
2019-04-25T22:58:50.647Z,98789.94
2019-04-25T23:01:39.577Z,98790.93
2019-04-25T23:04:16.994Z,98791.63
2019-04-25T23:06:47.955Z,98788.97
2019-04-25T23:09:18.849Z,98786.77
2019-04-25T23:11:50.054Z,98794.17
2019-04-25T23:14:21.131Z,98791.56
2019-04-25T23:16:52.004Z,98777.28
2019-04-25T23:19:22.977Z,98767.94
2019-04-25T23:21:53.971Z,98778.48
2019-04-25T23:24:26.797Z,98784.39
2019-04-25T23:27:26.134Z,98778.91
2019-04-25T23:29:57.144Z,98780.56
2019-04-25T23:32:28.424Z,98784.06
2019-04-25T23:34:59.434Z,98788.30
2019-04-25T23:37:30.368Z,98794.95
2019-04-25T23:40:01.146Z,98801.62
2019-04-25T23:42:32.034Z,98786.34
2019-04-25T23:45:03.217Z,98772.02
2019-04-25T23:47:34.178Z,98795.81
2019-04-25T23:50:07.085Z,98799.28
2019-04-25T23:52:38.084Z,98800.05
2019-04-25T23:55:10.056Z,98796.19
2019-04-25T23:57:41.906Z,98794.98
